createdAt,value
2023-01-23T00:02:11.302Z,19.92
2023-01-23T00:07:13.044Z,19.98
2023-01-23T00:12:14.684Z,19.35
2023-01-23T00:17:16.301Z,18.58
2023-01-23T00:22:18.055Z,19.83
2023-01-23T00:27:19.662Z,19.05
2023-01-23T00:32:21.281Z,18.52
2023-01-23T00:37:22.914Z,18.67
2023-01-23T00:42:24.576Z,18.52
2023-01-23T00:47:26.229Z,20.23
2023-01-23T00:52:28.151Z,20.27
2023-01-23T00:57:30.439Z,21.15
2023-01-23T01:02:32.134Z,20.63
2023-01-23T01:07:33.832Z,20.30
2023-01-23T01:12:35.489Z,19.20
2023-01-23T01:17:38.856Z,20.38
2023-01-23T01:22:40.489Z,20.17
2023-01-23T01:27:42.133Z,21.55
2023-01-23T01:32:44.743Z,19.80
2023-01-23T01:37:49.186Z,19.13
2023-01-23T01:43:02.914Z,18.80
2023-01-23T01:48:05.799Z,19.40
2023-01-23T01:53:07.487Z,17.23
2023-01-23T01:58:09.362Z,19.85
2023-01-23T02:03:11.513Z,17.83
2023-01-23T02:08:35.680Z,18.98
2023-01-23T02:13:39.975Z,19.35
2023-01-23T02:18:47.297Z,17.77
2023-01-23T02:24:08.249Z,17.15
2023-01-23T02:29:11.196Z,17.38
2023-01-23T02:34:22.421Z,18.48
2023-01-23T02:39:25.719Z,19.40
2023-01-23T02:44:33.892Z,18.88
2023-01-23T02:49:39.433Z,19.15
2023-01-23T02:54:42.683Z,18.60
2023-01-23T03:00:03.462Z,18.83
2023-01-23T03:05:08.766Z,19.83
2023-01-23T03:10:11.909Z,18.43
2023-01-23T03:15:17.156Z,19.00
2023-01-23T03:20:20.169Z,18.88
2023-01-23T03:25:22.089Z,19.85
2023-01-23T03:30:25.575Z,19.42
2023-01-23T03:35:28.392Z,18.77
2023-01-23T03:40:49.404Z,17.75
2023-01-23T03:45:54.472Z,19.58
2023-01-23T03:50:56.983Z,20.02
2023-01-23T03:55:59.360Z,22.43
2023-01-23T04:01:03.549Z,22.55
2023-01-23T04:06:08.962Z,23.30
2023-01-23T04:11:12.866Z,19.23
2023-01-23T04:16:16.732Z,19.70
2023-01-23T04:21:18.643Z,18.92
2023-01-23T04:26:20.587Z,19.27
2023-01-23T04:31:22.627Z,18.15
2023-01-23T04:36:25.043Z,17.95
2023-01-23T04:41:30.054Z,20.05
2023-01-23T04:46:39.069Z,17.90
2023-01-23T04:51:48.076Z,17.95
2023-01-23T04:56:51.612Z,18.35
2023-01-23T05:01:55.238Z,18.58
2023-01-23T05:06:57.213Z,17.65
2023-01-23T05:11:58.944Z,18.85
2023-01-23T05:17:02.359Z,18.60
2023-01-23T05:22:08.157Z,18.15
2023-01-23T05:27:10.124Z,17.90
2023-01-23T05:32:15.000Z,19.45
2023-01-23T05:37:25.910Z,19.45
2023-01-23T05:42:31.675Z,19.38
2023-01-23T05:47:52.387Z,22.00
2023-01-23T05:52:54.058Z,22.38
2023-01-23T05:57:56.315Z,20.42
2023-01-23T06:03:00.783Z,20.52
2023-01-23T06:08:21.119Z,18.33
2023-01-23T06:13:25.563Z,20.63
2023-01-23T06:18:27.460Z,24.30
2023-01-23T06:23:29.250Z,20.20
2023-01-23T06:28:33.785Z,18.98
2023-01-23T06:33:38.889Z,18.67
2023-01-23T06:38:44.268Z,19.92
2023-01-23T06:43:48.050Z,19.95
2023-01-23T06:48:55.529Z,19.27
2023-01-23T06:53:58.106Z,19.13
2023-01-23T06:59:00.509Z,21.00
2023-01-23T07:04:11.178Z,19.05
2023-01-23T07:09:14.501Z,19.88
2023-01-23T07:14:20.276Z,20.95
2023-01-23T07:19:26.885Z,20.50
2023-01-23T07:24:31.720Z,20.15
2023-01-23T07:29:33.312Z,22.83
2023-01-23T07:34:35.072Z,21.05
2023-01-23T07:39:36.665Z,21.73
2023-01-23T07:44:38.268Z,20.13
2023-01-23T07:49:39.876Z,20.35
2023-01-23T07:54:41.487Z,20.98
2023-01-23T07:59:43.109Z,20.00
2023-01-23T08:04:44.771Z,20.83
2023-01-23T08:09:46.363Z,20.83
2023-01-23T08:14:48.057Z,27.92
2023-01-23T08:19:49.688Z,23.27
2023-01-23T08:24:51.557Z,22.83
2023-01-23T08:29:53.185Z,22.30
2023-01-23T08:34:55.444Z,23.50
2023-01-23T08:39:57.032Z,23.30
2023-01-23T08:44:58.624Z,23.50
2023-01-23T08:50:00.207Z,24.35
2023-01-23T08:55:01.990Z,23.83
2023-01-23T09:00:04.437Z,23.42
2023-01-23T09:05:06.498Z,24.40
2023-01-23T09:10:08.956Z,24.17
2023-01-23T09:15:11.250Z,23.25
2023-01-23T09:20:12.912Z,22.55
2023-01-23T09:25:14.560Z,21.00
2023-01-23T09:30:16.732Z,21.83
2023-01-23T09:35:18.318Z,22.02
2023-01-23T09:40:23.173Z,23.30
2023-01-23T09:45:27.560Z,22.35
2023-01-23T09:50:33.425Z,23.10
2023-01-23T09:55:52.141Z,23.80
2023-01-23T10:00:54.062Z,23.63
2023-01-23T10:06:12.781Z,23.65
2023-01-23T10:11:51.661Z,23.42
2023-01-23T10:17:12.210Z,23.50
2023-01-23T10:22:33.582Z,22.02
2023-01-23T10:27:43.303Z,23.87
2023-01-23T10:33:02.711Z,23.20
2023-01-23T10:38:23.115Z,24.33
2023-01-23T10:43:26.563Z,21.65
2023-01-23T10:48:32.133Z,23.40
2023-01-23T10:53:33.780Z,24.15
2023-01-23T10:58:41.074Z,24.27
2023-01-23T11:03:45.538Z,22.33
2023-01-23T11:09:01.078Z,21.67
2023-01-23T11:14:05.435Z,20.15
2023-01-23T11:19:10.216Z,21.60
2023-01-23T11:24:41.059Z,23.75
2023-01-23T11:30:17.182Z,23.45
2023-01-23T11:35:25.427Z,22.35
2023-01-23T11:40:27.083Z,22.50
2023-01-23T11:45:55.298Z,21.20
2023-01-23T11:51:25.359Z,22.20
2023-01-23T11:56:43.926Z,21.65
2023-01-23T12:02:22.327Z,22.08
2023-01-23T12:07:25.071Z,21.75
2023-01-23T12:12:45.387Z,22.25
2023-01-23T12:17:52.143Z,21.70
2023-01-23T12:23:16.765Z,19.77
2023-01-23T12:28:24.001Z,18.05
2023-01-23T12:33:45.401Z,18.77
2023-01-23T12:39:07.016Z,19.55
2023-01-23T12:44:15.570Z,22.10
2023-01-23T12:49:29.661Z,22.98
2023-01-23T12:54:55.875Z,22.45
2023-01-23T13:00:07.789Z,25.33
2023-01-23T13:05:21.487Z,22.88
2023-01-23T13:10:52.414Z,24.35
2023-01-23T13:16:10.779Z,24.50
2023-01-23T13:21:31.032Z,24.10
2023-01-23T13:26:32.813Z,25.73
2023-01-23T13:31:50.191Z,25.10
2023-01-23T13:36:54.809Z,24.48
2023-01-23T13:42:14.943Z,25.45
2023-01-23T14:20:54.497Z,26.50
2023-01-23T14:25:57.190Z,28.52
2023-01-23T14:31:02.626Z,32.97
2023-01-23T14:36:04.651Z,34.13
2023-01-23T14:41:07.554Z,33.00
2023-01-23T14:46:22.335Z,33.97
2023-01-23T14:51:26.960Z,35.27
2023-01-23T14:56:39.592Z,32.30
2023-01-23T15:01:41.362Z,32.67
2023-01-23T15:06:43.095Z,36.15
2023-01-23T15:11:45.522Z,37.50
2023-01-23T15:16:47.261Z,38.10
2023-01-23T15:21:48.973Z,34.33
2023-01-23T15:27:06.319Z,36.25
2023-01-23T15:32:19.991Z,37.13
2023-01-23T15:37:27.926Z,36.70
2023-01-23T15:42:32.906Z,37.70
2023-01-23T15:47:34.985Z,36.28
2023-01-23T15:52:48.549Z,37.78
2023-01-23T15:57:52.192Z,38.20
2023-01-23T16:02:57.124Z,37.77
2023-01-23T16:08:02.566Z,38.77
2023-01-23T16:13:05.049Z,37.37
2023-01-23T16:18:07.215Z,39.87
2023-01-23T16:23:18.476Z,59.72
2023-01-23T16:28:22.718Z,43.50
2023-01-23T16:33:24.516Z,36.80
2023-01-23T16:38:28.982Z,38.97
2023-01-23T16:43:30.612Z,38.45
2023-01-23T16:48:32.295Z,39.95
2023-01-23T16:53:44.538Z,37.73
2023-01-23T16:58:46.208Z,37.73
2023-01-23T17:03:55.732Z,37.63
2023-01-23T17:08:57.410Z,36.67
2023-01-23T17:14:02.791Z,36.78
2023-01-23T17:19:10.607Z,38.00
2023-01-23T17:24:17.371Z,36.47
2023-01-23T17:29:20.035Z,35.70
2023-01-23T17:34:29.283Z,34.05
2023-01-23T17:39:30.977Z,36.67
2023-01-23T17:44:32.588Z,34.30
2023-01-23T17:49:34.436Z,33.70
2023-01-23T17:54:37.524Z,33.83
2023-01-23T17:59:39.194Z,34.37
2023-01-23T18:04:40.893Z,33.58
2023-01-23T18:09:42.631Z,32.88
2023-01-23T18:14:56.383Z,33.60
2023-01-23T18:19:58.209Z,33.78
2023-01-23T18:25:00.095Z,32.77
2023-01-23T18:30:31.232Z,32.80
2023-01-23T18:36:15.173Z,29.38
2023-01-23T18:41:22.876Z,30.97
2023-01-23T18:46:25.285Z,30.52
2023-01-23T18:51:26.958Z,31.17
2023-01-23T18:56:47.391Z,31.57
2023-01-23T19:02:11.083Z,31.73
2023-01-23T19:07:21.125Z,30.58
2023-01-23T19:12:49.040Z,30.05
2023-01-23T19:18:16.103Z,31.67
2023-01-23T19:23:26.510Z,30.57
2023-01-23T19:28:28.302Z,31.27
2023-01-23T19:33:29.953Z,33.47
2023-01-23T19:38:31.538Z,35.90
2023-01-23T19:43:33.151Z,33.37
2023-01-23T19:48:34.822Z,34.13
2023-01-23T19:53:36.641Z,33.37
2023-01-23T19:58:38.469Z,33.63
2023-01-23T20:03:41.189Z,33.07
2023-01-23T20:08:43.070Z,33.00
2023-01-23T20:13:44.921Z,32.97
2023-01-23T20:18:48.228Z,35.50
2023-01-23T20:23:50.563Z,33.77
2023-01-23T20:28:53.458Z,34.40
2023-01-23T20:33:55.081Z,34.38
2023-01-23T20:38:56.955Z,34.97
2023-01-23T20:43:58.602Z,35.77
2023-01-23T20:49:01.647Z,36.07
2023-01-23T20:54:03.276Z,35.93
2023-01-23T20:59:21.459Z,35.00
2023-01-23T21:04:25.264Z,34.00
2023-01-23T21:09:27.411Z,36.43
2023-01-23T21:14:29.519Z,37.20
2023-01-23T21:19:32.855Z,37.43
2023-01-23T21:24:36.134Z,33.80
2023-01-23T21:29:38.509Z,35.33
2023-01-23T21:34:40.152Z,40.30
2023-01-23T21:39:41.778Z,36.70
2023-01-23T21:44:43.382Z,37.57
2023-01-23T21:49:44.996Z,37.57
2023-01-23T21:54:46.641Z,37.20
2023-01-23T22:00:08.249Z,38.40
2023-01-23T22:05:15.494Z,37.65
2023-01-23T22:10:17.172Z,37.80
2023-01-23T22:15:19.178Z,36.83
2023-01-23T22:20:21.080Z,36.07
2023-01-23T22:25:23.144Z,36.93
2023-01-23T22:30:24.965Z,36.17
2023-01-23T22:35:26.575Z,39.50
2023-01-23T22:40:28.185Z,38.65
2023-01-23T22:45:29.914Z,41.27
2023-01-23T22:50:31.538Z,39.40
2023-01-23T22:55:33.157Z,38.65
2023-01-23T23:00:34.751Z,39.65
2023-01-23T23:05:36.398Z,37.30
2023-01-23T23:10:37.998Z,39.55
2023-01-23T23:15:39.598Z,38.93
2023-01-23T23:20:41.223Z,38.85
2023-01-23T23:25:42.895Z,39.22
2023-01-23T23:30:44.487Z,40.67
2023-01-23T23:35:46.260Z,39.50
2023-01-23T23:40:58.569Z,39.75
2023-01-23T23:46:02.611Z,41.20
2023-01-23T23:51:07.484Z,38.97
2023-01-23T23:56:16.914Z,41.67
